MSC Vanessa — HOWD — position and weather

sailwx.info

Track history (hours):
 
Tides and Currents Weather Stations Pressure Air Temp Water Temp Dewpoint Dewpoint Depression Visibility Wind Speed Wind Dir Waves Ship Positions

MSC Vanessa

Last reported at 2014-Sep-30 19:23 UTC. Time now 2014-Sep-30 19:55 UTC.
Position S 35°10' W 056°29'.

Length 300 m; draft 7.9 m.

Type: Ship (hazmat cat A). MMSI: 356946000.

Date/timePositionNaut miles runAvg speedWind from/ knotsBaromVisibWave heightAir tempDewpointWater temp
2014-Sep-30 19:23S 35°10' W 056°29'1314.1
2014-Sep-30 18:28S 35°10' W 056°45'1713.5
2014-Sep-30 17:11S 35°06' W 057°05'1013.6
2014-Sep-30 16:29S 34°59' W 057°13'8 9.0
2014-Sep-30 15:33S 34°53' W 057°20'1010.0
2014-Sep-30 14:31S 34°47' W 057°30'1010.0
2014-Sep-30 13:34S 34°44' W 057°42'8 8.2
2014-Sep-30 12:34S 34°44' W 057°52'1414.0
2014-Sep-30 11:33S 34°38' W 058°07'1211.8
2014-Sep-30 10:33S 34°36' W 058°21'1 0.8
2014-Sep-30 09:33S 34°35' W 058°22'0 0.0
2014-Sep-30 08:06S 34°35' W 058°22'0 0.0
2014-Sep-30 07:29S 34°35' W 058°22'0 0.0
2014-Sep-30 06:33S 34°35' W 058°22'0 0.0
2014-Sep-30 05:29S 34°35' W 058°22'0 0.0
2014-Sep-30 04:33S 34°35' W 058°22'0 0.0
2014-Sep-30 03:33S 34°35' W 058°22'0 0.0
2014-Sep-30 02:31S 34°35' W 058°22'0 0.0
2014-Sep-30 01:33S 34°35' W 058°22'0 0.0
2014-Sep-30 00:33S 34°35' W 058°22'0 0.0
2014-Sep-29 23:33S 34°35' W 058°22'0 0.0
2014-Sep-29 22:33S 34°35' W 058°22'0 0.0
2014-Sep-29 21:33S 34°35' W 058°22'0 0.0
2014-Sep-29 20:33S 34°35' W 058°22'0 0.0
2014-Sep-29 19:33S 34°35' W 058°22'0 0.0
2014-Sep-29 18:33S 34°35' W 058°22'0 0.0
2014-Sep-29 17:33S 34°35' W 058°22'0 0.0
2014-Sep-29 16:33S 34°35' W 058°22'0 0.0
2014-Sep-29 15:33S 34°35' W 058°22'0 0.0
2014-Sep-29 14:32S 34°35' W 058°22'0 0.0
2014-Sep-29 13:33S 34°35' W 058°22'3 3.5
2014-Sep-29 12:33S 34°36' W 058°18'1313.3
2014-Sep-29 11:34S 34°40' W 058°02'1010.0
2014-Sep-29 10:31S 34°44' W 057°51'0 0.0
2014-Sep-29 09:31S 34°44' W 057°51'0 0.0
2014-Sep-29 08:31S 34°44' W 057°51'0 0.1
2014-Sep-29 07:31S 34°44' W 057°51'0 0.0
2014-Sep-29 06:31S 34°44' W 057°51'0 0.0
2014-Sep-29 05:25S 34°44' W 057°51'2 2.6
2014-Sep-29 04:33S 34°44' W 057°48'1212.1
2014-Sep-29 03:32S 34°46' W 057°33'1313.0
2014-Sep-29 02:33S 34°53' W 057°20'1613.1
2014-Sep-29 01:18S 35°05' W 057°07'53 3.9
2014-Sep-28 11:33S 35°02' W 056°02'  
2014-Sep-25 15:17S 24°14' W 046°26'1115.1
2014-Sep-25 14:33S 24°04' W 046°22'7 7.1
2014-Sep-25 13:33S 23°57' W 046°18'3 1.5
2014-Sep-25 11:28S 23°55' W 046°21'0 0.0
2014-Sep-25 09:13S 23°55' W 046°21'0 0.0
2014-Sep-24 21:13S 23°55' W 046°21'0 0.0
2014-Sep-24 20:13S 23°55' W 046°21'0 0.0
2014-Sep-24 19:31S 23°55' W 046°21'0 0.0
2014-Sep-24 18:28S 23°55' W 046°21'0 0.0
2014-Sep-24 17:31S 23°55' W 046°21'0 0.0
2014-Sep-24 16:31S 23°55' W 046°21'0 0.0
2014-Sep-24 15:31S 23°55' W 046°21'0 0.0
2014-Sep-24 14:31S 23°55' W 046°21'0 0.0
2014-Sep-24 13:31S 23°55' W 046°21'0 0.0
2014-Sep-24 12:28S 23°55' W 046°21'0 0.0
2014-Sep-24 11:28S 23°55' W 046°21'0 0.0
2014-Sep-24 10:25S 23°55' W 046°21'0 0.0
2014-Sep-24 09:28S 23°55' W 046°21'0 0.0
2014-Sep-24 08:22S 23°55' W 046°21'0 0.0
2014-Sep-24 07:25S 23°55' W 046°21'0 0.0
2014-Sep-24 06:31S 23°55' W 046°21'0 0.0
2014-Sep-24 05:19S 23°55' W 046°21'0 0.0
2014-Sep-24 04:28S 23°55' W 046°21'1 1.2
2014-Sep-24 03:33S 23°56' W 046°20'5 5.3
2014-Sep-24 02:33S 24°01' W 046°20'1310.0
2014-Sep-24 01:14S 24°14' W 046°20'7 8.9
2014-Sep-24 00:30S 24°15' W 046°13'0 0.0
2014-Sep-23 20:20S 24°15' W 046°13'0 0.0
2014-Sep-23 19:29S 24°15' W 046°13'0 0.1
2014-Sep-23 18:24S 24°15' W 046°13'0 0.1
2014-Sep-23 17:30S 24°15' W 046°13'0 0.0
2014-Sep-23 16:33S 24°15' W 046°13'0 0.0
2014-Sep-23 15:27S 24°15' W 046°13'0 0.0
2014-Sep-23 14:30S 24°15' W 046°13'0 0.1
2014-Sep-23 13:33S 24°15' W 046°13'0 0.0
2014-Sep-23 09:21S 24°15' W 046°13'0 0.1
2014-Sep-23 07:33S 24°15' W 046°13'0 0.1
2014-Sep-23 06:24S 24°15' W 046°13'0 0.0
2014-Sep-23 05:33S 24°15' W 046°13'0 0.0
2014-Sep-23 02:15S 24°15' W 046°13'0 0.0
2014-Sep-23 01:30S 24°15' W 046°13'0 0.0
2014-Sep-23 00:33S 24°15' W 046°13'0 0.0
2014-Sep-22 23:33S 24°15' W 046°13'250 8.1
2014-Sep-21 16:31S 23°13' W 041°48'1313.6
2014-Sep-21 15:33S 23°07' W 041°35'1514.7
2014-Sep-21 14:33S 22°57' W 041°24'1514.8
2014-Sep-21 13:33S 22°45' W 041°14'  
Track history (hours):
 
Tides and Currents Weather Stations Pressure Air Temp Water Temp Dewpoint Dewpoint Depression Visibility Wind Speed Wind Dir Waves Ship Positions

MSC Vanessa

Last reported at 2014-Sep-30 19:23 UTC. Time now 2014-Sep-30 19:55 UTC.
Position S 35°10' W 056°29'.

Length 300 m; draft 7.9 m.

Type: Ship (hazmat cat A). MMSI: 356946000.

Date/timePositionNaut miles runAvg speedWind from/ knotsBaromVisibWave heightAir tempDewpointWater temp
2014-Sep-30 19:23S 35°10' W 056°29'1314.1
2014-Sep-30 18:28S 35°10' W 056°45'1713.5
2014-Sep-30 17:11S 35°06' W 057°05'1013.6
2014-Sep-30 16:29S 34°59' W 057°13'8 9.0
2014-Sep-30 15:33S 34°53' W 057°20'1010.0
2014-Sep-30 14:31S 34°47' W 057°30'1010.0
2014-Sep-30 13:34S 34°44' W 057°42'8 8.2
2014-Sep-30 12:34S 34°44' W 057°52'1414.0
2014-Sep-30 11:33S 34°38' W 058°07'1211.8
2014-Sep-30 10:33S 34°36' W 058°21'1 0.8
2014-Sep-30 09:33S 34°35' W 058°22'0 0.0
2014-Sep-30 08:06S 34°35' W 058°22'0 0.0
2014-Sep-30 07:29S 34°35' W 058°22'0 0.0
2014-Sep-30 06:33S 34°35' W 058°22'0 0.0
2014-Sep-30 05:29S 34°35' W 058°22'0 0.0
2014-Sep-30 04:33S 34°35' W 058°22'0 0.0
2014-Sep-30 03:33S 34°35' W 058°22'0 0.0
2014-Sep-30 02:31S 34°35' W 058°22'0 0.0
2014-Sep-30 01:33S 34°35' W 058°22'0 0.0
2014-Sep-30 00:33S 34°35' W 058°22'0 0.0
2014-Sep-29 23:33S 34°35' W 058°22'0 0.0
2014-Sep-29 22:33S 34°35' W 058°22'0 0.0
2014-Sep-29 21:33S 34°35' W 058°22'0 0.0
2014-Sep-29 20:33S 34°35' W 058°22'0 0.0
2014-Sep-29 19:33S 34°35' W 058°22'0 0.0
2014-Sep-29 18:33S 34°35' W 058°22'0 0.0
2014-Sep-29 17:33S 34°35' W 058°22'0 0.0
2014-Sep-29 16:33S 34°35' W 058°22'0 0.0
2014-Sep-29 15:33S 34°35' W 058°22'0 0.0
2014-Sep-29 14:32S 34°35' W 058°22'0 0.0
2014-Sep-29 13:33S 34°35' W 058°22'3 3.5
2014-Sep-29 12:33S 34°36' W 058°18'1313.3
2014-Sep-29 11:34S 34°40' W 058°02'1010.0
2014-Sep-29 10:31S 34°44' W 057°51'0 0.0
2014-Sep-29 09:31S 34°44' W 057°51'0 0.0
2014-Sep-29 08:31S 34°44' W 057°51'0 0.1
2014-Sep-29 07:31S 34°44' W 057°51'0 0.0
2014-Sep-29 06:31S 34°44' W 057°51'0 0.0
2014-Sep-29 05:25S 34°44' W 057°51'2 2.6
2014-Sep-29 04:33S 34°44' W 057°48'1212.1
2014-Sep-29 03:32S 34°46' W 057°33'1313.0
2014-Sep-29 02:33S 34°53' W 057°20'1613.1
2014-Sep-29 01:18S 35°05' W 057°07'53 3.9
2014-Sep-28 11:33S 35°02' W 056°02'  
2014-Sep-25 15:17S 24°14' W 046°26'1115.1
2014-Sep-25 14:33S 24°04' W 046°22'7 7.1
2014-Sep-25 13:33S 23°57' W 046°18'3 1.5
2014-Sep-25 11:28S 23°55' W 046°21'0 0.0
2014-Sep-25 09:13S 23°55' W 046°21'0 0.0
2014-Sep-24 21:13S 23°55' W 046°21'0 0.0
2014-Sep-24 20:13S 23°55' W 046°21'0 0.0
2014-Sep-24 19:31S 23°55' W 046°21'0 0.0
2014-Sep-24 18:28S 23°55' W 046°21'0 0.0
2014-Sep-24 17:31S 23°55' W 046°21'0 0.0
2014-Sep-24 16:31S 23°55' W 046°21'0 0.0
2014-Sep-24 15:31S 23°55' W 046°21'0 0.0
2014-Sep-24 14:31S 23°55' W 046°21'0 0.0
2014-Sep-24 13:31S 23°55' W 046°21'0 0.0
2014-Sep-24 12:28S 23°55' W 046°21'0 0.0
2014-Sep-24 11:28S 23°55' W 046°21'0 0.0
2014-Sep-24 10:25S 23°55' W 046°21'0 0.0
2014-Sep-24 09:28S 23°55' W 046°21'0 0.0
2014-Sep-24 08:22S 23°55' W 046°21'0 0.0
2014-Sep-24 07:25S 23°55' W 046°21'0 0.0
2014-Sep-24 06:31S 23°55' W 046°21'0 0.0
2014-Sep-24 05:19S 23°55' W 046°21'0 0.0
2014-Sep-24 04:28S 23°55' W 046°21'1 1.2
2014-Sep-24 03:33S 23°56' W 046°20'5 5.3
2014-Sep-24 02:33S 24°01' W 046°20'1310.0
2014-Sep-24 01:14S 24°14' W 046°20'7 8.9
2014-Sep-24 00:30S 24°15' W 046°13'0 0.0
2014-Sep-23 20:20S 24°15' W 046°13'0 0.0
2014-Sep-23 19:29S 24°15' W 046°13'0 0.1
2014-Sep-23 18:24S 24°15' W 046°13'0 0.1
2014-Sep-23 17:30S 24°15' W 046°13'0 0.0
2014-Sep-23 16:33S 24°15' W 046°13'0 0.0
2014-Sep-23 15:27S 24°15' W 046°13'0 0.0
2014-Sep-23 14:30S 24°15' W 046°13'0 0.1
2014-Sep-23 13:33S 24°15' W 046°13'0 0.0
2014-Sep-23 09:21S 24°15' W 046°13'0 0.1
2014-Sep-23 07:33S 24°15' W 046°13'0 0.1
2014-Sep-23 06:24S 24°15' W 046°13'0 0.0
2014-Sep-23 05:33S 24°15' W 046°13'0 0.0
2014-Sep-23 02:15S 24°15' W 046°13'0 0.0
2014-Sep-23 01:30S 24°15' W 046°13'0 0.0
2014-Sep-23 00:33S 24°15' W 046°13'0 0.0
2014-Sep-22 23:33S 24°15' W 046°13'250 8.1
2014-Sep-21 16:31S 23°13' W 041°48'1313.6
2014-Sep-21 15:33S 23°07' W 041°35'1514.7
2014-Sep-21 14:33S 22°57' W 041°24'1514.8
2014-Sep-21 13:33S 22°45' W 041°14'  

Dump ship's entire track history